Time;durP1;ratioP1;P1;durP2;ratioP2;P2;SDS_P1;SDS_P2;PMS_P1;PMS_P2;Temp;Humidity;BMP_temperature;BMP_pressure;BME280_temperature;BME280_humidity;BME280_pressure;Samples;Min_cycle;Max_cycle;Signal;HPM_P1;HPM_P2
2022/09/13 00:00:41;;;;;;;3.90;3.58;;;10.60;99.90;;;;;;4994256;28;20054;-66
2022/09/13 00:03:10;;;;;;;2.67;2.45;;;10.70;99.90;;;;;;4991957;28;20050;-67
2022/09/13 00:05:37;;;;;;;4.00;3.70;;;10.60;99.90;;;;;;4992826;28;20073;-68
2022/09/13 00:08:06;;;;;;;3.75;2.75;;;10.60;99.90;;;;;;4993239;28;20064;-67
2022/09/13 00:10:34;;;;;;;3.20;2.70;;;10.60;99.90;;;;;;4990987;28;20046;-69
2022/09/13 00:13:01;;;;;;;7.68;2.97;;;10.60;99.90;;;;;;4997345;28;20042;-69
2022/09/13 00:15:29;;;;;;;3.70;2.47;;;10.60;99.90;;;;;;4985062;28;20054;-68
2022/09/13 00:17:56;;;;;;;4.47;2.13;;;10.60;99.90;;;;;;4991885;28;20431;-67
2022/09/13 00:20:23;;;;;;;4.25;2.63;;;10.60;99.90;;;;;;4985954;28;20042;-66
2022/09/13 00:22:50;;;;;;;3.17;2.80;;;10.60;99.90;;;;;;4989791;28;20060;-71
2022/09/13 00:25:18;;;;;;;3.33;2.88;;;10.60;99.90;;;;;;4989677;28;20489;-68
2022/09/13 00:27:45;;;;;;;3.58;2.30;;;10.60;99.90;;;;;;4988969;28;20078;-66
2022/09/13 00:30:12;;;;;;;2.92;2.13;;;10.60;99.90;;;;;;4986166;28;20141;-71
2022/09/13 00:32:39;;;;;;;4.15;2.70;;;10.70;99.90;;;;;;4995052;28;20042;-66
2022/09/13 00:35:07;;;;;;;3.22;2.05;;;10.60;99.90;;;;;;4999238;28;20745;-68
2022/09/13 00:37:33;;;;;;;4.70;2.38;;;10.70;99.90;;;;;;5022825;28;20048;-66
2022/09/13 00:40:01;;;;;;;4.28;2.67;;;10.70;99.90;;;;;;4993142;28;20046;-66
2022/09/13 00:42:31;;;;;;;2.10;1.90;;;10.80;99.90;;;;;;4987323;28;20148;-68
2022/09/13 00:44:59;;;;;;;;;;;10.80;99.90;;;;;;4993971;28;20117;-68
2022/09/13 00:47:33;;;;;;;3.03;2.42;;;10.80;99.90;;;;;;4990983;28;20020;-67
2022/09/13 00:50:22;;;;;;;2.83;2.00;;;10.80;99.90;;;;;;4994151;28;20077;-67
2022/09/13 00:53:02;;;;;;;4.43;2.07;;;10.80;99.90;;;;;;4995815;28;20144;-67
2022/09/13 00:55:41;;;;;;;3.03;2.72;;;10.80;99.90;;;;;;4983162;28;20132;-66
2022/09/13 00:58:22;;;;;;;4.13;2.33;;;10.80;99.90;;;;;;4988152;28;20373;-68
2022/09/13 01:00:49;;;;;;;;;;;10.90;99.90;;;;;;4994703;28;20563;-67
2022/09/13 01:03:20;;;;;;;3.20;2.90;;;10.80;99.90;;;;;;4985804;28;19929;-68
2022/09/13 01:05:55;;;;;;;2.60;2.40;;;10.90;99.90;;;;;;4995976;28;20042;-68
2022/09/13 01:08:23;;;;;;;2.33;2.13;;;10.90;99.90;;;;;;4991138;28;20146;-66
2022/09/13 01:10:51;;;;;;;2.97;2.22;;;10.90;99.90;;;;;;4989671;28;20058;-68
2022/09/13 01:13:21;;;;;;;2.70;2.50;;;10.90;99.90;;;;;;4991805;28;20038;-67
2022/09/13 01:15:49;;;;;;;2.22;2.03;;;11.00;99.90;;;;;;4991118;28;20050;-65
2022/09/13 01:18:16;;;;;;;3.00;2.80;;;10.90;99.90;;;;;;4991722;28;20117;-68
2022/09/13 01:21:03;;;;;;;2.58;2.38;;;11.00;99.90;;;;;;4989771;28;20052;-65
2022/09/13 01:23:49;;;;;;;2.47;2.28;;;11.00;99.90;;;;;;5000369;28;20129;-66
2022/09/13 01:26:51;;;;;;;3.40;1.88;;;11.10;99.90;;;;;;4993829;28;20050;-66
2022/09/13 01:29:39;;;;;;;3.92;2.78;;;11.10;99.90;;;;;;4995170;28;20133;-68
2022/09/13 01:32:22;;;;;;;4.93;3.10;;;11.10;99.90;;;;;;4998324;28;20072;-66
2022/09/13 01:34:55;;;;;;;5.10;3.50;;;11.10;99.90;;;;;;4996021;28;20080;-68
2022/09/13 01:37:22;;;;;;;5.30;2.70;;;11.10;99.90;;;;;;4990953;28;20053;-65
2022/09/13 01:40:03;;;;;;;3.65;3.22;;;11.10;99.90;;;;;;5002365;28;20068;-66
2022/09/13 01:42:56;;;;;;;2.45;2.25;;;11.10;99.90;;;;;;5026175;28;20110;-70
2022/09/13 01:45:34;;;;;;;3.72;2.88;;;11.10;99.90;;;;;;4996045;28;20145;-67
2022/09/13 01:48:26;;;;;;;2.70;2.50;;;11.10;99.90;;;;;;5002098;28;20539;-66
2022/09/13 01:51:21;;;;;;;4.05;3.30;;;11.10;99.90;;;;;;4990721;28;20050;-72
2022/09/13 01:54:31;;;;;;;3.45;3.00;;;11.10;99.90;;;;;;4989778;28;20112;-65
2022/09/13 01:57:12;;;;;;;2.90;2.60;;;11.10;99.90;;;;;;4999619;28;20170;-66
2022/09/13 01:59:53;;;;;;;5.05;3.67;;;11.10;99.90;;;;;;4995402;28;20480;-66
2022/09/13 02:02:30;;;;;;;4.28;3.05;;;11.10;99.90;;;;;;4994992;28;20074;-69
2022/09/13 02:05:12;;;;;;;3.47;3.13;;;11.10;99.90;;;;;;4995439;28;20060;-66
2022/09/13 02:07:45;;;;;;;5.63;3.30;;;11.10;99.90;;;;;;4997514;28;20074;-67
2022/09/13 02:10:28;;;;;;;4.60;3.42;;;11.10;99.90;;;;;;4993799;28;20578;-66
2022/09/13 02:12:57;;;;;;;4.10;3.65;;;11.10;99.90;;;;;;4994775;28;20046;-66
2022/09/13 02:15:33;;;;;;;3.30;3.00;;;11.10;99.90;;;;;;5001383;28;20166;-67
2022/09/13 02:18:12;;;;;;;4.75;2.78;;;11.10;99.90;;;;;;4997372;28;20253;-67
2022/09/13 02:20:44;;;;;;;8.23;4.13;;;11.10;99.90;;;;;;4992486;28;20049;-66
2022/09/13 02:23:27;;;;;;;4.40;3.35;;;11.20;99.90;;;;;;4996895;28;20048;-66
2022/09/13 02:25:56;;;;;;;3.85;3.45;;;11.20;99.90;;;;;;4998007;28;20052;-66
2022/09/13 02:28:31;;;;;;;3.58;3.28;;;11.10;99.90;;;;;;4999902;28;20072;-66
2022/09/13 02:31:00;;;;;;;2.97;2.60;;;11.10;99.90;;;;;;4988956;28;20061;-67
2022/09/13 02:33:32;;;;;;;4.32;3.95;;;11.20;99.90;;;;;;4989099;28;20073;-71
2022/09/13 02:36:04;;;;;;;5.43;3.08;;;11.20;99.90;;;;;;4991831;28;20046;-68
2022/09/13 02:38:46;;;;;;;3.22;2.83;;;11.20;99.90;;;;;;4998624;28;20065;-67
2022/09/13 02:41:47;;;;;;;3.45;2.63;;;11.20;99.90;;;;;;4985607;28;20133;-65
2022/09/13 02:44:36;;;;;;;;;;;11.20;99.90;;;;;;4994212;28;20050;-65
2022/09/13 02:47:44;;;;;;;3.78;2.78;;;11.20;99.90;;;;;;4989231;28;19968;-70
2022/09/13 02:50:56;;;;;;;3.63;3.33;;;11.20;99.90;;;;;;4986521;28;20156;-68
2022/09/13 02:53:29;;;;;;;3.17;2.83;;;11.20;99.90;;;;;;4992260;28;20054;-67
2022/09/13 02:56:19;;;;;;;2.92;2.65;;;11.30;99.90;;;;;;5003278;28;20391;-66
2022/09/13 02:58:59;;;;;;;3.65;3.03;;;11.30;99.90;;;;;;4995833;28;20108;-65
2022/09/13 03:01:26;;;;;;;5.78;3.28;;;11.30;99.90;;;;;;4992492;28;20137;-66
2022/09/13 03:03:53;;;;;;;4.38;2.92;;;11.20;99.90;;;;;;5000337;28;20444;-69
2022/09/13 03:06:23;;;;;;;8.13;2.85;;;11.30;99.90;;;;;;4997074;28;20045;-66
2022/09/13 03:08:50;;;;;;;10.57;2.80;;;11.40;99.90;;;;;;4992725;28;20060;-67
2022/09/13 03:12:01;;;;;;;3.90;3.22;;;11.40;99.90;;;;;;4996004;28;20153;-68
2022/09/13 03:14:52;;;;;;;2.67;2.47;;;11.40;99.90;;;;;;4992918;28;20053;-65
2022/09/13 03:17:45;;;;;;;5.15;3.30;;;11.50;99.90;;;;;;4987190;28;20130;-70
2022/09/13 03:20:33;;;;;;;2.83;2.63;;;11.50;99.90;;;;;;4996689;28;20054;-69
2022/09/13 03:23:17;;;;;;;5.80;3.88;;;11.60;99.90;;;;;;4988150;28;20145;-69
2022/09/13 03:26:05;;;;;;;3.17;2.88;;;11.60;99.90;;;;;;4988647;28;20137;-65
2022/09/13 03:28:44;;;;;;;2.90;2.63;;;11.60;99.90;;;;;;4996859;28;20122;-65
2022/09/13 03:31:25;;;;;;;4.97;3.67;;;11.60;99.90;;;;;;4985049;28;20508;-65
2022/09/13 03:34:05;;;;;;;2.75;2.55;;;11.60;99.90;;;;;;4986398;28;20057;-66
2022/09/13 03:36:52;;;;;;;2.78;2.47;;;11.60;99.90;;;;;;4986963;28;20089;-68
2022/09/13 03:39:27;;;;;;;2.25;2.05;;;11.70;99.90;;;;;;4987260;28;20113;-68
2022/09/13 03:41:58;;;;;;;2.97;2.13;;;11.70;99.90;;;;;;4994977;28;20372;-66
2022/09/13 03:44:28;;;;;;;2.00;1.90;;;11.80;99.90;;;;;;4991068;28;20109;-70
2022/09/13 03:46:59;;;;;;;2.83;2.63;;;11.70;99.90;;;;;;4997974;28;20067;-65
2022/09/13 03:49:27;;;;;;;7.60;2.28;;;11.80;99.90;;;;;;4997332;28;20096;-66
2022/09/13 03:51:55;;;;;;;3.38;2.78;;;11.70;99.90;;;;;;4987044;28;20046;-68
2022/09/13 03:54:28;;;;;;;5.05;2.10;;;11.70;99.90;;;;;;4995910;28;20077;-67
2022/09/13 03:57:13;;;;;;;2.67;2.30;;;11.80;99.90;;;;;;4989147;28;20077;-66
2022/09/13 03:59:46;;;;;;;2.67;2.20;;;11.80;99.90;;;;;;4989879;28;20121;-66
2022/09/13 04:02:14;;;;;;;3.83;2.22;;;11.80;99.90;;;;;;4987711;28;20546;-67
2022/09/13 04:04:42;;;;;;;3.38;2.60;;;11.70;99.90;;;;;;4988890;28;20073;-70
2022/09/13 04:07:12;;;;;;;2.30;2.10;;;11.70;99.90;;;;;;4985809;28;20090;-67
2022/09/13 04:09:38;;;;;;;2.43;2.20;;;11.70;99.90;;;;;;4989927;28;20379;-70
2022/09/13 04:12:08;;;;;;;3.20;2.33;;;11.70;99.90;;;;;;4985739;28;20138;-66
2022/09/13 04:14:35;;;;;;;4.03;2.45;;;11.70;99.90;;;;;;4993460;28;20061;-65
2022/09/13 04:17:02;;;;;;;3.72;2.55;;;11.70;99.90;;;;;;4986408;28;20373;-72
2022/09/13 04:19:30;;;;;;;4.55;2.72;;;11.80;99.90;;;;;;4988554;28;20136;-67
2022/09/13 04:21:57;;;;;;;4.05;2.47;;;11.80;99.90;;;;;;4985419;28;20801;-69
2022/09/13 04:24:29;;;;;;;7.85;2.50;;;11.70;99.90;;;;;;4986634;28;20345;-70
2022/09/13 04:26:56;;;;;;;3.28;2.97;;;11.80;99.90;;;;;;5003847;28;20064;-70
2022/09/13 04:29:25;;;;;;;2.90;2.60;;;11.80;99.90;;;;;;4990493;28;20065;-70
2022/09/13 04:31:53;;;;;;;2.17;2.05;;;11.70;99.90;;;;;;4987682;28;20054;-65
2022/09/13 04:34:23;;;;;;;3.83;2.60;;;11.80;99.90;;;;;;4989180;28;20068;-68
2022/09/13 04:36:52;;;;;;;3.85;2.58;;;11.70;99.90;;;;;;4989001;28;20508;-68
2022/09/13 04:39:19;;;;;;;3.30;2.80;;;11.80;99.90;;;;;;4985926;28;20056;-67
2022/09/13 04:41:47;;;;;;;3.10;2.80;;;11.80;99.90;;;;;;4986884;28;20054;-67
2022/09/13 04:44:16;;;;;;;6.82;2.55;;;11.80;99.90;;;;;;4993947;28;20140;-69
2022/09/13 04:46:47;;;;;;;3.05;2.53;;;11.90;99.90;;;;;;4993624;28;20038;-70
2022/09/13 04:49:16;;;;;;;8.25;2.65;;;11.90;99.90;;;;;;4990838;28;20046;-66
2022/09/13 04:51:43;;;;;;;3.17;2.30;;;11.90;99.90;;;;;;4987331;28;20047;-72
2022/09/13 04:54:11;;;;;;;3.03;2.13;;;12.00;99.90;;;;;;4993576;28;20056;-72
2022/09/13 04:56:43;;;;;;;3.92;2.60;;;12.10;99.90;;;;;;4994702;28;20065;-65
2022/09/13 04:59:10;;;;;;;3.00;2.70;;;12.20;99.90;;;;;;5011102;28;20865;-69
2022/09/13 05:01:38;;;;;;;4.57;2.72;;;12.20;99.90;;;;;;4993600;28;20047;-67
2022/09/13 05:04:06;;;;;;;3.08;2.80;;;12.30;99.90;;;;;;4988993;28;20128;-66
2022/09/13 05:06:34;;;;;;;2.70;2.33;;;12.40;99.90;;;;;;4992458;28;20548;-66
2022/09/13 05:09:03;;;;;;;3.08;2.30;;;12.40;99.90;;;;;;4991631;28;20042;-68
2022/09/13 05:11:30;;;;;;;2.67;2.45;;;12.40;99.90;;;;;;4993344;28;20526;-69
2022/09/13 05:13:59;;;;;;;2.22;1.95;;;12.40;99.90;;;;;;4991815;28;20052;-67
2022/09/13 05:16:29;;;;;;;4.45;2.58;;;12.40;99.90;;;;;;4989928;28;20046;-66
2022/09/13 05:18:56;;;;;;;3.20;2.10;;;12.50;99.90;;;;;;4994745;28;20072;-66
2022/09/13 05:21:24;;;;;;;2.70;2.15;;;12.60;99.90;;;;;;4990785;28;20053;-68
2022/09/13 05:23:52;;;;;;;2.50;2.03;;;12.60;99.90;;;;;;4987028;28;20038;-68
2022/09/13 05:26:21;;;;;;;1.77;1.65;;;12.70;99.90;;;;;;4992574;28;20038;-70
2022/09/13 05:28:48;;;;;;;2.25;1.83;;;12.70;99.90;;;;;;4986004;28;20065;-66
2022/09/13 05:31:19;;;;;;;4.00;2.72;;;12.70;99.90;;;;;;4989325;28;20064;-67
2022/09/13 05:33:51;;;;;;;3.00;2.33;;;12.70;99.90;;;;;;4988601;28;20457;-69
2022/09/13 05:36:18;;;;;;;3.50;2.25;;;12.80;99.90;;;;;;4991665;28;20527;-69
2022/09/13 05:38:45;;;;;;;2.92;2.03;;;12.90;99.90;;;;;;4994740;28;20054;-69
2022/09/13 05:41:12;;;;;;;3.65;2.40;;;12.90;99.90;;;;;;4985949;28;20048;-68
2022/09/13 05:43:39;;;;;;;3.75;2.00;;;12.90;99.90;;;;;;4994669;28;20061;-68
2022/09/13 05:46:09;;;;;;;6.05;2.47;;;13.00;99.90;;;;;;4994615;28;20141;-67
2022/09/13 05:48:37;;;;;;;2.30;2.03;;;13.00;99.90;;;;;;4991184;28;20081;-68
2022/09/13 05:51:07;;;;;;;2.85;2.13;;;13.10;99.90;;;;;;4992666;28;20054;-66
2022/09/13 05:53:35;;;;;;;2.70;2.50;;;13.10;99.90;;;;;;4988167;28;20121;-69
2022/09/13 05:56:02;;;;;;;2.20;2.00;;;13.20;99.90;;;;;;4995266;28;20633;-66
2022/09/13 05:58:29;;;;;;;4.10;2.85;;;13.20;99.90;;;;;;4995093;28;20042;-67
2022/09/13 06:00:56;;;;;;;4.22;2.28;;;13.20;99.90;;;;;;5000178;28;20045;-67
2022/09/13 06:03:23;;;;;;;1.95;1.75;;;13.20;99.90;;;;;;4996558;28;20047;-70
2022/09/13 06:05:55;;;;;;;2.85;2.08;;;13.30;99.90;;;;;;4999288;28;20046;-67
2022/09/13 06:08:27;;;;;;;2.03;1.77;;;13.30;99.90;;;;;;4993354;28;20046;-66
2022/09/13 06:11:08;;;;;;;3.85;2.70;;;13.40;99.90;;;;;;5003310;28;20492;-67
2022/09/13 06:13:35;;;;;;;8.20;2.63;;;13.40;99.90;;;;;;4991330;28;20142;-67
2022/09/13 06:16:05;;;;;;;5.28;2.28;;;13.50;99.90;;;;;;4995421;28;20050;-67
2022/09/13 06:18:34;;;;;;;4.32;2.30;;;13.50;99.90;;;;;;4987742;28;20066;-66
2022/09/13 06:21:16;;;;;;;3.95;2.45;;;13.50;99.90;;;;;;4988230;28;20046;-67
2022/09/13 06:23:44;;;;;;;1.80;1.70;;;13.50;99.90;;;;;;4988672;28;20054;-65
2022/09/13 06:26:14;;;;;;;4.57;2.22;;;13.60;99.90;;;;;;4991437;28;20077;-67
2022/09/13 06:28:41;;;;;;;2.00;1.90;;;13.60;99.90;;;;;;4997141;28;20076;-66
2022/09/13 06:31:11;;;;;;;5.28;2.80;;;13.70;99.90;;;;;;4987516;28;20280;-66
2022/09/13 06:33:40;;;;;;;5.43;2.80;;;13.70;99.90;;;;;;4988833;28;20038;-67
2022/09/13 06:36:09;;;;;;;3.42;2.10;;;13.70;99.90;;;;;;4989615;28;20408;-67
2022/09/13 06:38:38;;;;;;;2.97;2.43;;;13.70;99.90;;;;;;4991944;28;20157;-67
2022/09/13 06:41:11;;;;;;;3.60;2.38;;;13.70;99.90;;;;;;4992639;28;20304;-67
2022/09/13 06:43:39;;;;;;;7.50;2.25;;;13.70;99.90;;;;;;4996085;28;20107;-66
2022/09/13 06:46:08;;;;;;;16.75;3.17;;;13.70;99.90;;;;;;4993028;28;20054;-69
2022/09/13 06:48:38;;;;;;;2.97;2.17;;;13.80;99.90;;;;;;4988699;28;20464;-66
2022/09/13 06:51:12;;;;;;;4.32;2.80;;;13.70;99.90;;;;;;4993996;28;20220;-66
2022/09/13 06:53:40;;;;;;;2.72;2.53;;;13.80;99.90;;;;;;4987293;28;20042;-69
2022/09/13 06:56:10;;;;;;;2.75;2.08;;;13.80;99.90;;;;;;4996877;28;20049;-67
2022/09/13 06:58:38;;;;;;;3.35;3.15;;;13.90;99.90;;;;;;4993797;28;20042;-66
2022/09/13 07:01:09;;;;;;;5.25;2.95;;;13.80;99.90;;;;;;4995818;28;20177;-69
2022/09/13 07:03:44;;;;;;;3.85;3.17;;;13.90;99.90;;;;;;4987456;28;20053;-66
2022/09/13 07:06:28;;;;;;;2.78;2.47;;;13.90;99.90;;;;;;4998006;28;20058;-66
2022/09/13 07:08:57;;;;;;;5.05;2.40;;;13.90;99.90;;;;;;5001622;28;20073;-69
2022/09/13 07:11:27;;;;;;;2.75;2.55;;;13.90;99.90;;;;;;4994058;28;20061;-66
2022/09/13 07:13:56;;;;;;;3.15;2.75;;;13.90;99.90;;;;;;4998939;28;20144;-67
2022/09/13 07:16:29;;;;;;;3.55;3.25;;;13.90;99.90;;;;;;4994594;28;20389;-66
2022/09/13 07:19:04;;;;;;;3.22;2.92;;;14.00;99.90;;;;;;4997704;28;20162;-71
2022/09/13 07:21:32;;;;;;;3.03;2.70;;;14.00;99.90;;;;;;4996958;28;20143;-68
2022/09/13 07:23:59;;;;;;;2.67;2.47;;;14.00;99.90;;;;;;4991050;28;20061;-66
2022/09/13 07:26:27;;;;;;;3.80;3.40;;;14.10;99.90;;;;;;4998135;28;20613;-66
2022/09/13 07:28:57;;;;;;;6.88;2.83;;;14.10;99.90;;;;;;4996353;28;20216;-67
2022/09/13 07:31:34;;;;;;;;;;;14.20;99.90;;;;;;4995636;28;20122;-69
2022/09/13 07:34:22;;;;;;;5.60;3.15;;;14.20;99.90;;;;;;5001358;28;20332;-66
2022/09/13 07:36:51;;;;;;;3.83;3.15;;;14.20;99.90;;;;;;4990430;28;20052;-71
2022/09/13 07:39:19;;;;;;;3.25;2.92;;;14.20;99.90;;;;;;4989712;28;20065;-66
2022/09/13 07:41:49;;;;;;;4.55;3.03;;;14.30;99.90;;;;;;4993355;28;20049;-66
2022/09/13 07:44:16;;;;;;;3.78;2.92;;;14.30;99.90;;;;;;4991601;28;20042;-68
2022/09/13 07:46:43;;;;;;;2.80;2.60;;;14.30;99.90;;;;;;4993662;28;20065;-66
2022/09/13 07:49:16;;;;;;;2.75;2.55;;;14.30;99.90;;;;;;4988179;28;20042;-65
2022/09/13 07:51:43;;;;;;;4.43;3.03;;;14.30;99.90;;;;;;4991811;28;20042;-66
2022/09/13 07:54:13;;;;;;;4.20;3.63;;;14.30;99.90;;;;;;4990392;28;20745;-66
2022/09/13 07:56:41;;;;;;;3.70;3.07;;;14.30;99.90;;;;;;4998276;28;20046;-66
2022/09/13 07:59:13;;;;;;;5.63;3.72;;;14.30;99.90;;;;;;4994850;28;20062;-66
2022/09/13 08:01:43;;;;;;;3.75;3.45;;;14.30;99.90;;;;;;4995449;28;20046;-65
2022/09/13 08:04:13;;;;;;;3.63;3.33;;;14.30;99.90;;;;;;4999267;28;20050;-68
2022/09/13 08:06:42;;;;;;;4.40;3.25;;;14.30;99.90;;;;;;5000937;28;20049;-70
2022/09/13 08:09:10;;;;;;;3.80;3.00;;;14.30;99.90;;;;;;4998353;28;20065;-66
2022/09/13 08:11:42;;;;;;;4.57;2.90;;;14.30;99.90;;;;;;4989121;28;20046;-66
2022/09/13 08:14:11;;;;;;;7.15;4.10;;;14.30;99.90;;;;;;4992532;28;20049;-66
2022/09/13 08:16:38;;;;;;;3.70;3.30;;;14.30;99.90;;;;;;4994833;28;20344;-65
2022/09/13 08:19:07;;;;;;;5.00;4.50;;;14.30;99.90;;;;;;4996537;28;20053;-65
2022/09/13 08:21:36;;;;;;;4.45;2.65;;;14.30;99.90;;;;;;4993972;28;20484;-66
2022/09/13 08:24:05;;;;;;;6.18;3.80;;;14.40;99.90;;;;;;4990686;28;20137;-70
2022/09/13 08:26:34;;;;;;;5.07;3.35;;;14.30;99.90;;;;;;4993447;28;20702;-72
2022/09/13 08:29:04;;;;;;;6.07;3.05;;;14.30;99.90;;;;;;4989956;28;20030;-66
2022/09/13 08:31:31;;;;;;;6.63;3.05;;;14.30;99.90;;;;;;4987668;28;20108;-67
2022/09/13 08:33:59;;;;;;;3.75;3.25;;;14.30;99.90;;;;;;4987570;28;20046;-65
2022/09/13 08:36:26;;;;;;;4.15;3.20;;;14.30;99.90;;;;;;4991286;28;20361;-68
2022/09/13 08:38:57;;;;;;;3.55;3.00;;;14.40;99.90;;;;;;4995359;28;20133;-65
2022/09/13 08:41:40;;;;;;;3.38;2.90;;;14.30;99.90;;;;;;4988280;28;20145;-69
2022/09/13 08:44:32;;;;;;;5.55;2.85;;;14.40;99.90;;;;;;4990821;28;20159;-64
2022/09/13 08:47:10;;;;;;;;;;;14.40;99.90;;;;;;4995900;28;20038;-64
2022/09/13 08:49:44;;;;;;;3.03;2.45;;;14.40;99.90;;;;;;4984839;28;20047;-65
2022/09/13 08:52:14;;;;;;;3.58;2.72;;;14.40;99.90;;;;;;4987975;28;20102;-68
2022/09/13 08:54:42;;;;;;;2.95;2.65;;;14.40;99.90;;;;;;4991962;28;20081;-66
2022/09/13 08:57:24;;;;;;;4.10;2.30;;;14.50;99.90;;;;;;4989167;28;20604;-65
2022/09/13 09:00:04;;;;;;;3.80;2.42;;;14.50;99.90;;;;;;4994478;28;20352;-69
2022/09/13 09:02:57;;;;;;;2.47;2.28;;;14.60;99.90;;;;;;4993986;28;20133;-65
2022/09/13 09:05:27;;;;;;;2.92;2.20;;;14.70;99.90;;;;;;4991033;28;20137;-64
2022/09/13 09:08:17;;;;;;;3.20;2.25;;;14.70;99.90;;;;;;4989346;28;20046;-65
2022/09/13 09:10:52;;;;;;;4.50;2.87;;;14.80;99.90;;;;;;4992848;28;20054;-65
2022/09/13 09:13:29;;;;;;;2.28;2.00;;;14.90;99.90;;;;;;4990556;28;20165;-65
2022/09/13 09:16:04;;;;;;;3.72;2.47;;;14.90;99.90;;;;;;4994454;28;20050;-64
2022/09/13 09:18:41;;;;;;;2.80;2.50;;;15.00;99.90;;;;;;4985143;28;20049;-66
2022/09/13 09:21:14;;;;;;;3.20;2.45;;;15.00;99.90;;;;;;4987318;28;20049;-66
2022/09/13 09:24:01;;;;;;;4.93;2.15;;;15.10;99.90;;;;;;4982093;28;20519;-67
2022/09/13 09:26:30;;;;;;;3.13;2.80;;;15.10;99.90;;;;;;4994059;28;20405;-67
2022/09/13 09:29:21;;;;;;;5.15;2.85;;;15.20;99.90;;;;;;4992660;28;20042;-65
2022/09/13 09:31:54;;;;;;;2.78;2.45;;;15.30;99.90;;;;;;4989676;28;20137;-66
2022/09/13 09:34:30;;;;;;;2.50;2.30;;;15.30;99.90;;;;;;4989757;28;20141;-66
2022/09/13 09:37:07;;;;;;;4.18;1.92;;;15.30;99.90;;;;;;4992596;28;20052;-65
2022/09/13 09:39:38;;;;;;;5.32;2.40;;;15.40;99.90;;;;;;4994956;28;20041;-65
2022/09/13 09:42:16;;;;;;;1.88;1.77;;;15.40;99.90;;;;;;4996690;28;20052;-67
2022/09/13 09:44:48;;;;;;;5.43;2.17;;;15.50;99.90;;;;;;4996324;28;20141;-65
2022/09/13 09:47:23;;;;;;;2.17;1.83;;;15.50;99.90;;;;;;4997210;28;20046;-65
2022/09/13 09:50:13;;;;;;;3.85;2.15;;;15.60;99.90;;;;;;4995581;28;20049;-63
2022/09/13 09:52:56;;;;;;;2.58;2.25;;;15.60;99.90;;;;;;4999089;28;20145;-66
2022/09/13 09:55:25;;;;;;;2.58;1.70;;;15.60;99.90;;;;;;4990844;28;20080;-70
2022/09/13 09:57:52;;;;;;;3.05;2.33;;;15.60;99.90;;;;;;5002662;28;20034;-65
2022/09/13 10:00:21;;;;;;;1.98;1.85;;;15.60;99.90;;;;;;4994613;28;20078;-66
2022/09/13 10:02:50;;;;;;;2.42;2.00;;;15.60;99.90;;;;;;5002863;28;20042;-65
2022/09/13 10:05:19;;;;;;;2.87;1.90;;;15.60;99.90;;;;;;4996245;28;20121;-67
2022/09/13 10:07:56;;;;;;;3.65;2.72;;;15.60;99.90;;;;;;5002511;28;21008;-65
2022/09/13 10:10:51;;;;;;;2.42;2.05;;;15.60;99.90;;;;;;5000157;28;20052;-67
2022/09/13 10:13:21;;;;;;;2.95;1.92;;;15.70;99.90;;;;;;4996834;28;20050;-65
2022/09/13 10:16:06;;;;;;;4.00;3.30;;;15.70;99.90;;;;;;4995134;28;20042;-64
2022/09/13 10:18:35;;;;;;;2.47;2.28;;;15.70;99.90;;;;;;4989127;28;20364;-64
2022/09/13 10:21:17;;;;;;;4.13;2.03;;;15.80;99.90;;;;;;4988967;28;20054;-65
2022/09/13 10:23:49;;;;;;;2.28;2.03;;;15.80;99.90;;;;;;4987784;28;20947;-66
2022/09/13 10:26:20;;;;;;;3.08;2.28;;;15.90;99.90;;;;;;4995862;28;20065;-67
2022/09/13 10:29:07;;;;;;;2.50;2.10;;;15.80;99.90;;;;;;4998610;28;20058;-67
2022/09/13 10:31:48;;;;;;;2.22;1.95;;;15.80;99.90;;;;;;4985971;28;20039;-66
2022/09/13 10:34:20;;;;;;;4.00;1.88;;;15.70;99.90;;;;;;4991654;28;20050;-66
2022/09/13 10:37:13;;;;;;;3.58;3.28;;;15.70;99.90;;;;;;4993107;28;20081;-65
2022/09/13 10:39:57;;;;;;;2.78;2.05;;;15.60;99.90;;;;;;4986505;28;20045;-69
2022/09/13 10:42:26;;;;;;;3.60;2.10;;;15.70;99.90;;;;;;4992437;28;20805;-65
2022/09/13 10:45:05;;;;;;;2.53;2.33;;;15.70;99.90;;;;;;4990689;28;20567;-66
2022/09/13 10:47:44;;;;;;;2.90;2.67;;;15.70;99.90;;;;;;4989029;28;20052;-66
2022/09/13 10:50:23;;;;;;;3.47;2.95;;;15.70;99.90;;;;;;4989867;28;20043;-67
2022/09/13 10:52:52;;;;;;;5.00;2.42;;;15.70;99.90;;;;;;4994513;28;20132;-65
2022/09/13 10:55:24;;;;;;;2.22;1.95;;;15.70;99.90;;;;;;4986704;28;20372;-65
2022/09/13 10:58:01;;;;;;;5.15;2.47;;;15.70;99.90;;;;;;4998408;28;20216;-68
2022/09/13 11:00:56;;;;;;;7.88;4.45;;;15.70;99.90;;;;;;4991580;28;20802;-65
2022/09/13 11:03:42;;;;;;;6.85;3.47;;;15.70;99.90;;;;;;4992974;28;20165;-65
2022/09/13 11:06:50;;;;;;;3.75;2.63;;;15.70;99.90;;;;;;4990660;28;20512;-64
2022/09/13 11:09:22;;;;;;;5.18;2.92;;;15.70;99.90;;;;;;4991806;28;20049;-68
2022/09/13 11:12:07;;;;;;;4.10;2.92;;;15.70;99.90;;;;;;4994793;28;20076;-66
2022/09/13 11:14:34;;;;;;;3.38;3.08;;;15.70;99.90;;;;;;4992891;28;20141;-64
2022/09/13 11:17:42;;;;;;;3.58;3.00;;;15.70;99.90;;;;;;4989930;28;20054;-70
2022/09/13 11:20:46;;;;;;;4.63;3.28;;;15.60;99.90;;;;;;4989644;28;20651;-64
2022/09/13 11:23:39;;;;;;;7.78;3.58;;;15.60;99.90;;;;;;4988456;28;20061;-66
2022/09/13 11:26:43;;;;;;;4.82;4.10;;;15.70;99.90;;;;;;4986130;28;20176;-64
2022/09/13 11:29:29;;;;;;;9.52;4.20;;;15.60;99.90;;;;;;4991918;28;20121;-65
2022/09/13 11:32:27;;;;;;;5.80;3.88;;;15.60;99.90;;;;;;4992612;28;20053;-64
2022/09/13 11:35:16;;;;;;;4.57;3.33;;;15.60;99.90;;;;;;4995200;28;20044;-64
2022/09/13 11:38:07;;;;;;;8.95;4.32;;;15.60;99.90;;;;;;4992804;28;20479;-64
2022/09/13 11:40:57;;;;;;;7.68;6.22;;;15.70;99.90;;;;;;4994353;28;20096;-64
2022/09/13 11:43:58;;;;;;;7.43;5.22;;;15.70;99.90;;;;;;4992106;28;20757;-65
2022/09/13 11:46:29;;;;;;;5.32;4.75;;;15.70;99.90;;;;;;4988450;28;20043;-65
2022/09/13 11:49:20;;;;;;;8.00;4.78;;;15.70;99.90;;;;;;4991713;28;20046;-65
2022/09/13 11:52:18;;;;;;;7.00;4.32;;;15.70;99.90;;;;;;4987509;28;20510;-66
2022/09/13 11:54:57;;;;;;;7.35;5.00;;;15.70;99.90;;;;;;4990378;28;20042;-66
2022/09/13 11:57:33;;;;;;;8.00;5.25;;;15.70;99.90;;;;;;4987694;28;20141;-68
2022/09/13 12:00:14;;;;;;;6.30;5.45;;;15.60;99.90;;;;;;4999428;28;20447;-64
2022/09/13 12:03:00;;;;;;;6.75;6.10;;;15.60;99.90;;;;;;4998798;28;20127;-67
2022/09/13 12:05:32;;;;;;;6.55;5.57;;;15.50;99.90;;;;;;4998059;28;20149;-65
2022/09/13 12:08:24;;;;;;;7.88;6.28;;;15.50;99.90;;;;;;4993450;28;20543;-69
2022/09/13 12:10:56;;;;;;;7.18;6.53;;;15.50;99.90;;;;;;4988480;28;20038;-65
2022/09/13 12:13:28;;;;;;;7.05;6.45;;;15.50;99.90;;;;;;4983018;28;20050;-65
2022/09/13 12:16:01;;;;;;;7.80;6.25;;;15.50;99.90;;;;;;4991720;28;20045;-64
2022/09/13 12:18:35;;;;;;;9.73;7.15;;;15.50;99.90;;;;;;4997355;28;20152;-67
2022/09/13 12:21:14;;;;;;;9.93;6.60;;;15.60;99.90;;;;;;4990706;28;20066;-69
2022/09/13 12:23:43;;;;;;;10.95;6.90;;;15.70;99.90;;;;;;4994567;28;20138;-66
2022/09/13 12:26:22;;;;;;;7.80;6.03;;;15.80;99.90;;;;;;4990558;28;20046;-64
2022/09/13 12:29:10;;;;;;;6.70;6.10;;;15.90;99.90;;;;;;4991628;28;20054;-64
2022/09/13 12:31:37;;;;;;;6.38;5.65;;;16.00;99.90;;;;;;4992568;28;20041;-67
2022/09/13 12:34:06;;;;;;;7.63;5.32;;;16.00;99.90;;;;;;4994671;28;20046;-64
2022/09/13 12:36:55;;;;;;;7.27;6.07;;;16.10;99.90;;;;;;4989967;28;20061;-64
2022/09/13 12:39:48;;;;;;;6.13;5.55;;;16.10;99.90;;;;;;4991389;28;20292;-69
2022/09/13 12:42:37;;;;;;;8.15;5.97;;;16.00;99.90;;;;;;4988022;28;20054;-66
2022/09/13 12:45:09;;;;;;;7.57;5.75;;;15.90;99.90;;;;;;4994801;28;20443;-66
2022/09/13 12:47:45;;;;;;;8.55;6.53;;;15.90;99.90;;;;;;4991159;28;20073;-66
2022/09/13 12:50:30;;;;;;;6.85;6.13;;;15.90;99.90;;;;;;4990550;28;20613;-65
2022/09/13 12:53:39;;;;;;;7.97;5.68;;;15.80;99.90;;;;;;4990126;28;20480;-68
2022/09/13 12:56:33;;;;;;;7.38;6.53;;;15.70;99.90;;;;;;4990664;28;20045;-64
2022/09/13 12:59:11;;;;;;;7.55;6.85;;;15.60;99.90;;;;;;4995822;28;20140;-67
2022/09/13 13:01:46;;;;;;;9.77;7.28;;;15.50;99.90;;;;;;4990434;28;20065;-66
2022/09/13 13:04:21;;;;;;;9.73;7.45;;;15.50;99.90;;;;;;4998976;28;20049;-65
2022/09/13 13:06:54;;;;;;;9.88;7.82;;;15.50;99.90;;;;;;5000273;28;20081;-67
2022/09/13 13:09:39;;;;;;;11.05;8.02;;;15.50;99.90;;;;;;4996894;28;20228;-68
2022/09/13 13:12:10;;;;;;;10.70;7.70;;;15.50;99.90;;;;;;5002995;28;20179;-67
2022/09/13 13:14:37;;;;;;;7.90;7.15;;;15.50;99.90;;;;;;4993890;28;20167;-70
2022/09/13 13:17:41;;;;;;;8.32;7.55;;;15.40;99.90;;;;;;5003952;28;20463;-67
2022/09/13 13:20:42;;;;;;;10.18;7.68;;;15.40;99.90;;;;;;4989641;28;20050;-64
2022/09/13 13:23:35;;;;;;;9.18;8.27;;;15.40;99.90;;;;;;4995880;28;20211;-66
2022/09/13 13:26:07;;;;;;;9.05;8.15;;;15.50;99.90;;;;;;4994948;28;20047;-67
2022/09/13 13:28:43;;;;;;;8.93;8.07;;;15.60;99.90;;;;;;4999145;28;20491;-63
2022/09/13 13:31:25;;;;;;;8.07;7.20;;;15.60;99.90;;;;;;4985427;28;20065;-68